PATC/TNC METAR and TAF weather

Enter ICAO airport designator
Station Type Date Time Source
PATC METAR 2020/03/31 09:55 UTC NOAA

PATC 310955Z AUTO 17024KT 5SM -SN OVC007 M09/M10 A2980 RMK AO2 PK WND 17028/0907 SNB0813 SLP100 P0000 T10911096 $


Station Type Date Time Source
PATC Decoded METAR 2020/03/31 09:55 UTC NOAA

Tin City Airways Facilities Sector, AK, United States (PATC) 65-34N 167-55W
Mar 31, 2020 - 05:55 AM EDT / 2020.03.31 0955 UTC
Wind: from the S (170 degrees) at 28 MPH (24 KT):0
Visibility: 5 mile(s):0
Sky conditions: overcast
Weather: light snow
Precipitation last hour: A trace
Temperature: 15.6 F (-9.1 C)
Windchill: -4 F (-20 C):1
Dew Point: 14.7 F (-9.6 C)
Relative Humidity: 96%
Pressure (altimeter): 29.8 in. Hg (1009 hPa)
ob: PATC 310955Z AUTO 17024KT 5SM -SN OVC007 M09/M10 A2980 RMK AO2 PK WND 17028/0907 SNB0813 SLP100 P0000 T10911096
cycle: 10

Station Type Date Time Source
PATC TAF 2016/08/27 04:12 UTC NOAA

TAF PATC 270400Z 2704/2810 18012G18KT 0400 FG OVC002 QNH3015INS TX10/2718Z TN06/2710Z

Example: see airport list